sensor_id;sensor_type;location;lat;lon;timestamp;P1;durP1;ratioP1;P2;durP2;ratioP2
15130;SDS011;7666;50.920;4.628;2022-09-06T00:00:43;4.47;;;3.10;;
15130;SDS011;7666;50.920;4.628;2022-09-06T00:03:30;4.30;;;3.10;;
15130;SDS011;7666;50.920;4.628;2022-09-06T00:06:16;5.03;;;3.30;;
15130;SDS011;7666;50.920;4.628;2022-09-06T00:09:03;3.77;;;2.77;;
15130;SDS011;7666;50.920;4.628;2022-09-06T00:11:49;3.67;;;2.87;;
15130;SDS011;7666;50.920;4.628;2022-09-06T00:14:36;5.80;;;2.93;;
15130;SDS011;7666;50.920;4.628;2022-09-06T00:17:22;3.93;;;2.77;;
15130;SDS011;7666;50.920;4.628;2022-09-06T00:20:08;3.40;;;2.97;;
15130;SDS011;7666;50.920;4.628;2022-09-06T00:22:59;3.97;;;2.77;;
15130;SDS011;7666;50.920;4.628;2022-09-06T00:25:45;3.13;;;2.60;;
15130;SDS011;7666;50.920;4.628;2022-09-06T00:28:32;5.43;;;3.00;;
15130;SDS011;7666;50.920;4.628;2022-09-06T00:31:20;4.67;;;3.10;;
15130;SDS011;7666;50.920;4.628;2022-09-06T00:34:07;3.93;;;2.80;;
15130;SDS011;7666;50.920;4.628;2022-09-06T00:36:53;3.67;;;2.90;;
15130;SDS011;7666;50.920;4.628;2022-09-06T00:39:40;3.27;;;2.67;;
15130;SDS011;7666;50.920;4.628;2022-09-06T00:42:26;3.30;;;3.00;;
15130;SDS011;7666;50.920;4.628;2022-09-06T00:45:12;4.50;;;3.07;;
15130;SDS011;7666;50.920;4.628;2022-09-06T00:47:59;5.17;;;3.00;;
15130;SDS011;7666;50.920;4.628;2022-09-06T00:50:46;4.93;;;3.00;;
15130;SDS011;7666;50.920;4.628;2022-09-06T00:53:33;4.80;;;2.70;;
15130;SDS011;7666;50.920;4.628;2022-09-06T00:56:19;4.50;;;2.87;;
15130;SDS011;7666;50.920;4.628;2022-09-06T00:59:06;3.00;;;2.70;;
15130;SDS011;7666;50.920;4.628;2022-09-06T01:01:52;2.80;;;2.60;;
15130;SDS011;7666;50.920;4.628;2022-09-06T01:04:40;3.43;;;2.70;;
15130;SDS011;7666;50.920;4.628;2022-09-06T01:10:25;5.17;;;3.10;;
15130;SDS011;7666;50.920;4.628;2022-09-06T01:13:19;6.20;;;3.47;;
15130;SDS011;7666;50.920;4.628;2022-09-06T01:19:29;6.43;;;3.30;;
15130;SDS011;7666;50.920;4.628;2022-09-06T01:28:38;4.40;;;2.80;;
15130;SDS011;7666;50.920;4.628;2022-09-06T01:31:44;6.93;;;3.30;;
15130;SDS011;7666;50.920;4.628;2022-09-06T01:34:37;4.10;;;2.93;;
15130;SDS011;7666;50.920;4.628;2022-09-06T01:37:25;3.30;;;3.00;;
15130;SDS011;7666;50.920;4.628;2022-09-06T01:40:11;3.33;;;3.03;;
15130;SDS011;7666;50.920;4.628;2022-09-06T01:42:57;4.00;;;3.10;;
15130;SDS011;7666;50.920;4.628;2022-09-06T01:45:50;4.53;;;3.63;;
15130;SDS011;7666;50.920;4.628;2022-09-06T02:00:44;7.30;;;3.57;;
15130;SDS011;7666;50.920;4.628;2022-09-06T02:03:36;3.90;;;3.50;;
15130;SDS011;7666;50.920;4.628;2022-09-06T02:06:28;3.87;;;3.47;;
15130;SDS011;7666;50.920;4.628;2022-09-06T02:09:17;4.73;;;3.63;;
15130;SDS011;7666;50.920;4.628;2022-09-06T02:12:04;4.53;;;3.80;;
15130;SDS011;7666;50.920;4.628;2022-09-06T02:14:52;4.43;;;3.60;;
15130;SDS011;7666;50.920;4.628;2022-09-06T02:17:42;6.13;;;3.53;;
15130;SDS011;7666;50.920;4.628;2022-09-06T02:20:30;6.17;;;4.37;;
15130;SDS011;7666;50.920;4.628;2022-09-06T02:23:18;4.80;;;3.60;;
15130;SDS011;7666;50.920;4.628;2022-09-06T02:26:10;4.87;;;3.90;;
15130;SDS011;7666;50.920;4.628;2022-09-06T02:28:58;5.10;;;3.80;;
15130;SDS011;7666;50.920;4.628;2022-09-06T02:32:27;5.40;;;3.80;;
15130;SDS011;7666;50.920;4.628;2022-09-06T02:34:55;4.83;;;3.50;;
15130;SDS011;7666;50.920;4.628;2022-09-06T02:37:42;4.67;;;3.40;;
15130;SDS011;7666;50.920;4.628;2022-09-06T02:40:29;4.10;;;3.70;;
15130;SDS011;7666;50.920;4.628;2022-09-06T02:43:15;4.10;;;3.70;;
15130;SDS011;7666;50.920;4.628;2022-09-06T02:46:02;6.20;;;3.60;;
15130;SDS011;7666;50.920;4.628;2022-09-06T02:48:49;4.43;;;3.80;;
15130;SDS011;7666;50.920;4.628;2022-09-06T02:51:39;6.27;;;3.70;;
15130;SDS011;7666;50.920;4.628;2022-09-06T02:54:25;7.43;;;4.13;;
15130;SDS011;7666;50.920;4.628;2022-09-06T02:57:12;4.97;;;3.90;;
15130;SDS011;7666;50.920;4.628;2022-09-06T02:59:58;4.10;;;3.80;;
15130;SDS011;7666;50.920;4.628;2022-09-06T03:02:44;5.13;;;3.93;;
15130;SDS011;7666;50.920;4.628;2022-09-06T03:05:31;5.20;;;4.20;;
15130;SDS011;7666;50.920;4.628;2022-09-06T03:08:18;5.03;;;4.13;;
15130;SDS011;7666;50.920;4.628;2022-09-06T03:11:05;6.43;;;4.57;;
15130;SDS011;7666;50.920;4.628;2022-09-06T03:13:51;4.37;;;3.97;;
15130;SDS011;7666;50.920;4.628;2022-09-06T03:16:37;5.50;;;4.80;;
15130;SDS011;7666;50.920;4.628;2022-09-06T03:19:24;7.00;;;4.90;;
15130;SDS011;7666;50.920;4.628;2022-09-06T03:22:10;6.23;;;4.83;;
15130;SDS011;7666;50.920;4.628;2022-09-06T03:24:57;6.60;;;5.17;;
15130;SDS011;7666;50.920;4.628;2022-09-06T03:27:44;5.23;;;4.73;;
15130;SDS011;7666;50.920;4.628;2022-09-06T03:30:30;11.37;;;5.20;;
15130;SDS011;7666;50.920;4.628;2022-09-06T03:33:17;7.33;;;5.47;;
15130;SDS011;7666;50.920;4.628;2022-09-06T03:36:03;9.27;;;5.37;;
15130;SDS011;7666;50.920;4.628;2022-09-06T03:38:50;7.13;;;6.10;;
15130;SDS011;7666;50.920;4.628;2022-09-06T03:41:38;6.43;;;5.60;;
15130;SDS011;7666;50.920;4.628;2022-09-06T03:44:24;7.90;;;5.53;;
15130;SDS011;7666;50.920;4.628;2022-09-06T03:47:11;7.20;;;5.77;;
15130;SDS011;7666;50.920;4.628;2022-09-06T03:49:57;7.83;;;6.20;;
15130;SDS011;7666;50.920;4.628;2022-09-06T03:52:43;7.60;;;5.97;;
15130;SDS011;7666;50.920;4.628;2022-09-06T03:55:30;8.43;;;6.23;;
15130;SDS011;7666;50.920;4.628;2022-09-06T03:58:17;10.60;;;6.07;;
15130;SDS011;7666;50.920;4.628;2022-09-06T04:01:05;8.30;;;6.60;;
15130;SDS011;7666;50.920;4.628;2022-09-06T04:03:51;9.27;;;6.60;;
15130;SDS011;7666;50.920;4.628;2022-09-06T04:06:38;7.60;;;6.90;;
15130;SDS011;7666;50.920;4.628;2022-09-06T04:09:24;7.50;;;6.60;;
15130;SDS011;7666;50.920;4.628;2022-09-06T04:12:11;7.97;;;7.10;;
15130;SDS011;7666;50.920;4.628;2022-09-06T04:14:57;8.37;;;6.80;;
15130;SDS011;7666;50.920;4.628;2022-09-06T04:17:44;9.20;;;7.30;;
15130;SDS011;7666;50.920;4.628;2022-09-06T04:20:30;8.20;;;6.63;;
15130;SDS011;7666;50.920;4.628;2022-09-06T04:23:17;9.50;;;6.30;;
15130;SDS011;7666;50.920;4.628;2022-09-06T04:26:04;7.13;;;6.33;;
15130;SDS011;7666;50.920;4.628;2022-09-06T04:28:50;7.10;;;6.43;;
15130;SDS011;7666;50.920;4.628;2022-09-06T04:31:37;7.23;;;6.27;;
15130;SDS011;7666;50.920;4.628;2022-09-06T04:34:23;7.13;;;6.10;;
15130;SDS011;7666;50.920;4.628;2022-09-06T04:37:09;8.57;;;6.53;;
15130;SDS011;7666;50.920;4.628;2022-09-06T04:39:56;8.43;;;6.30;;
15130;SDS011;7666;50.920;4.628;2022-09-06T04:42:42;10.70;;;7.67;;
15130;SDS011;7666;50.920;4.628;2022-09-06T04:45:28;9.93;;;6.87;;
15130;SDS011;7666;50.920;4.628;2022-09-06T04:48:15;7.70;;;6.30;;
15130;SDS011;7666;50.920;4.628;2022-09-06T04:51:01;8.10;;;6.50;;
15130;SDS011;7666;50.920;4.628;2022-09-06T04:53:48;8.20;;;7.30;;
15130;SDS011;7666;50.920;4.628;2022-09-06T04:56:34;8.70;;;7.27;;
15130;SDS011;7666;50.920;4.628;2022-09-06T04:59:21;10.13;;;7.87;;
15130;SDS011;7666;50.920;4.628;2022-09-06T05:02:07;8.50;;;7.60;;
15130;SDS011;7666;50.920;4.628;2022-09-06T05:04:53;10.80;;;7.63;;
15130;SDS011;7666;50.920;4.628;2022-09-06T05:07:41;8.67;;;7.77;;
15130;SDS011;7666;50.920;4.628;2022-09-06T05:10:27;11.00;;;7.60;;
15130;SDS011;7666;50.920;4.628;2022-09-06T05:13:14;9.23;;;7.20;;
15130;SDS011;7666;50.920;4.628;2022-09-06T05:16:00;10.00;;;7.60;;
15130;SDS011;7666;50.920;4.628;2022-09-06T05:18:47;7.30;;;6.60;;
15130;SDS011;7666;50.920;4.628;2022-09-06T05:21:33;8.00;;;7.20;;
15130;SDS011;7666;50.920;4.628;2022-09-06T05:24:20;9.50;;;6.80;;
15130;SDS011;7666;50.920;4.628;2022-09-06T05:27:06;7.23;;;6.40;;
15130;SDS011;7666;50.920;4.628;2022-09-06T05:29:53;7.60;;;6.73;;
15130;SDS011;7666;50.920;4.628;2022-09-06T05:32:39;7.40;;;6.80;;
15130;SDS011;7666;50.920;4.628;2022-09-06T05:35:25;7.37;;;6.30;;
15130;SDS011;7666;50.920;4.628;2022-09-06T05:38:12;6.20;;;5.60;;
15130;SDS011;7666;50.920;4.628;2022-09-06T05:40:58;10.07;;;5.50;;
15130;SDS011;7666;50.920;4.628;2022-09-06T05:43:45;5.07;;;4.57;;
15130;SDS011;7666;50.920;4.628;2022-09-06T05:46:31;4.40;;;4.00;;
15130;SDS011;7666;50.920;4.628;2022-09-06T05:49:17;6.73;;;4.30;;
15130;SDS011;7666;50.920;4.628;2022-09-06T05:52:04;4.77;;;3.60;;
15130;SDS011;7666;50.920;4.628;2022-09-06T05:54:50;4.43;;;3.67;;
15130;SDS011;7666;50.920;4.628;2022-09-06T05:57:37;6.83;;;3.70;;
15130;SDS011;7666;50.920;4.628;2022-09-06T06:00:23;4.50;;;3.60;;
15130;SDS011;7666;50.920;4.628;2022-09-06T06:03:09;5.10;;;3.60;;
15130;SDS011;7666;50.920;4.628;2022-09-06T06:05:56;6.47;;;3.60;;
15130;SDS011;7666;50.920;4.628;2022-09-06T06:08:42;5.13;;;3.27;;
15130;SDS011;7666;50.920;4.628;2022-09-06T06:11:29;4.93;;;3.60;;
15130;SDS011;7666;50.920;4.628;2022-09-06T06:14:15;5.33;;;3.10;;
15130;SDS011;7666;50.920;4.628;2022-09-06T06:17:02;10.47;;;3.30;;
15130;SDS011;7666;50.920;4.628;2022-09-06T06:19:48;5.77;;;3.00;;
15130;SDS011;7666;50.920;4.628;2022-09-06T06:22:34;5.30;;;3.42;;
15130;SDS011;7666;50.920;4.628;2022-09-06T06:25:21;3.92;;;3.38;;
15130;SDS011;7666;50.920;4.628;2022-09-06T06:28:10;5.25;;;2.80;;
15130;SDS011;7666;50.920;4.628;2022-09-06T06:30:56;4.50;;;2.70;;
15130;SDS011;7666;50.920;4.628;2022-09-06T06:33:43;7.53;;;2.85;;
15130;SDS011;7666;50.920;4.628;2022-09-06T06:36:31;5.65;;;3.00;;
15130;SDS011;7666;50.920;4.628;2022-09-06T06:39:18;4.75;;;2.67;;
15130;SDS011;7666;50.920;4.628;2022-09-06T06:42:04;8.80;;;2.70;;
15130;SDS011;7666;50.920;4.628;2022-09-06T06:44:51;5.97;;;2.55;;
15130;SDS011;7666;50.920;4.628;2022-09-06T06:47:37;4.97;;;2.00;;
15130;SDS011;7666;50.920;4.628;2022-09-06T06:50:24;4.30;;;2.72;;
15130;SDS011;7666;50.920;4.628;2022-09-06T06:53:10;4.38;;;2.50;;
15130;SDS011;7666;50.920;4.628;2022-09-06T06:55:56;5.03;;;2.45;;
15130;SDS011;7666;50.920;4.628;2022-09-06T06:58:43;5.25;;;2.17;;
15130;SDS011;7666;50.920;4.628;2022-09-06T07:01:30;4.22;;;2.45;;
15130;SDS011;7666;50.920;4.628;2022-09-06T07:04:17;2.83;;;2.05;;
15130;SDS011;7666;50.920;4.628;2022-09-06T07:07:03;3.22;;;2.00;;
15130;SDS011;7666;50.920;4.628;2022-09-06T07:09:50;3.67;;;2.10;;
15130;SDS011;7666;50.920;4.628;2022-09-06T07:12:37;4.55;;;1.85;;
15130;SDS011;7666;50.920;4.628;2022-09-06T07:15:23;3.85;;;1.70;;
15130;SDS011;7666;50.920;4.628;2022-09-06T07:18:10;4.22;;;1.77;;
15130;SDS011;7666;50.920;4.628;2022-09-06T07:20:56;5.28;;;1.45;;
15130;SDS011;7666;50.920;4.628;2022-09-06T07:23:42;4.05;;;1.60;;
15130;SDS011;7666;50.920;4.628;2022-09-06T07:26:29;3.50;;;1.42;;
15130;SDS011;7666;50.920;4.628;2022-09-06T07:29:16;8.90;;;4.72;;
15130;SDS011;7666;50.920;4.628;2022-09-06T07:32:02;7.47;;;2.23;;
15130;SDS011;7666;50.920;4.628;2022-09-06T07:34:48;3.53;;;1.50;;
15130;SDS011;7666;50.920;4.628;2022-09-06T07:37:35;3.63;;;1.43;;
15130;SDS011;7666;50.920;4.628;2022-09-06T07:40:22;3.23;;;1.40;;
15130;SDS011;7666;50.920;4.628;2022-09-06T07:43:08;3.03;;;1.40;;
15130;SDS011;7666;50.920;4.628;2022-09-06T07:45:58;3.23;;;1.63;;
15130;SDS011;7666;50.920;4.628;2022-09-06T07:48:45;2.43;;;1.70;;
15130;SDS011;7666;50.920;4.628;2022-09-06T07:51:31;3.90;;;1.43;;
15130;SDS011;7666;50.920;4.628;2022-09-06T07:54:18;3.37;;;1.80;;
15130;SDS011;7666;50.920;4.628;2022-09-06T07:57:04;2.67;;;1.90;;
15130;SDS011;7666;50.920;4.628;2022-09-06T07:59:51;4.40;;;1.70;;
15130;SDS011;7666;50.920;4.628;2022-09-06T08:02:37;3.83;;;1.63;;
15130;SDS011;7666;50.920;4.628;2022-09-06T08:05:25;4.90;;;1.60;;
15130;SDS011;7666;50.920;4.628;2022-09-06T08:08:11;5.93;;;1.70;;
15130;SDS011;7666;50.920;4.628;2022-09-06T08:10:57;3.70;;;1.60;;
15130;SDS011;7666;50.920;4.628;2022-09-06T08:13:46;5.80;;;1.80;;
15130;SDS011;7666;50.920;4.628;2022-09-06T08:16:34;5.60;;;1.80;;
15130;SDS011;7666;50.920;4.628;2022-09-06T08:19:21;2.10;;;1.67;;
15130;SDS011;7666;50.920;4.628;2022-09-06T08:22:07;3.20;;;1.80;;
15130;SDS011;7666;50.920;4.628;2022-09-06T08:24:54;3.57;;;1.70;;
15130;SDS011;7666;50.920;4.628;2022-09-06T08:27:40;3.73;;;2.00;;
15130;SDS011;7666;50.920;4.628;2022-09-06T08:30:26;5.50;;;1.90;;
15130;SDS011;7666;50.920;4.628;2022-09-06T08:33:13;6.10;;;1.80;;
15130;SDS011;7666;50.920;4.628;2022-09-06T08:36:00;4.60;;;1.90;;
15130;SDS011;7666;50.920;4.628;2022-09-06T08:38:46;3.37;;;1.70;;
15130;SDS011;7666;50.920;4.628;2022-09-06T08:41:44;5.10;;;2.03;;
15130;SDS011;7666;50.920;4.628;2022-09-06T08:44:33;5.57;;;1.80;;
15130;SDS011;7666;50.920;4.628;2022-09-06T08:47:21;3.60;;;1.57;;
15130;SDS011;7666;50.920;4.628;2022-09-06T08:50:07;5.03;;;1.73;;
15130;SDS011;7666;50.920;4.628;2022-09-06T09:01:31;4.90;;;2.10;;
15130;SDS011;7666;50.920;4.628;2022-09-06T09:04:19;4.53;;;1.93;;
15130;SDS011;7666;50.920;4.628;2022-09-06T09:07:18;4.67;;;2.00;;
15130;SDS011;7666;50.920;4.628;2022-09-06T09:10:14;2.27;;;1.80;;
15130;SDS011;7666;50.920;4.628;2022-09-06T09:13:02;6.03;;;2.20;;
15130;SDS011;7666;50.920;4.628;2022-09-06T09:15:49;6.77;;;2.27;;
15130;SDS011;7666;50.920;4.628;2022-09-06T09:18:37;4.63;;;2.20;;
15130;SDS011;7666;50.920;4.628;2022-09-06T09:21:25;3.30;;;2.07;;
15130;SDS011;7666;50.920;4.628;2022-09-06T09:24:12;3.67;;;2.13;;
15130;SDS011;7666;50.920;4.628;2022-09-06T09:27:04;7.60;;;2.20;;
15130;SDS011;7666;50.920;4.628;2022-09-06T09:32:43;4.13;;;2.10;;
15130;SDS011;7666;50.920;4.628;2022-09-06T09:35:35;6.70;;;2.35;;
15130;SDS011;7666;50.920;4.628;2022-09-06T09:38:23;4.22;;;1.95;;
15130;SDS011;7666;50.920;4.628;2022-09-06T09:41:30;7.55;;;2.45;;
15130;SDS011;7666;50.920;4.628;2022-09-06T09:44:17;4.22;;;2.17;;
15130;SDS011;7666;50.920;4.628;2022-09-06T09:47:09;5.70;;;2.30;;
15130;SDS011;7666;50.920;4.628;2022-09-06T09:49:57;4.90;;;2.25;;
15130;SDS011;7666;50.920;4.628;2022-09-06T09:52:43;4.65;;;2.20;;
15130;SDS011;7666;50.920;4.628;2022-09-06T09:55:30;5.53;;;2.33;;
15130;SDS011;7666;50.920;4.628;2022-09-06T09:58:37;7.50;;;2.70;;
15130;SDS011;7666;50.920;4.628;2022-09-06T10:01:29;6.20;;;2.20;;
15130;SDS011;7666;50.920;4.628;2022-09-06T10:04:23;4.15;;;2.20;;
15130;SDS011;7666;50.920;4.628;2022-09-06T10:07:12;4.05;;;2.22;;
15130;SDS011;7666;50.920;4.628;2022-09-06T10:10:10;5.43;;;2.20;;
15130;SDS011;7666;50.920;4.628;2022-09-06T10:15:58;5.13;;;2.47;;
15130;SDS011;7666;50.920;4.628;2022-09-06T10:18:47;4.30;;;2.40;;
15130;SDS011;7666;50.920;4.628;2022-09-06T10:21:37;4.03;;;2.38;;
15130;SDS011;7666;50.920;4.628;2022-09-06T10:24:26;7.93;;;2.80;;
15130;SDS011;7666;50.920;4.628;2022-09-06T10:27:13;6.38;;;3.20;;
15130;SDS011;7666;50.920;4.628;2022-09-06T10:30:05;6.03;;;3.00;;
15130;SDS011;7666;50.920;4.628;2022-09-06T10:33:05;5.22;;;2.63;;
15130;SDS011;7666;50.920;4.628;2022-09-06T10:35:55;7.03;;;3.40;;
15130;SDS011;7666;50.920;4.628;2022-09-06T10:38:57;4.70;;;2.78;;
15130;SDS011;7666;50.920;4.628;2022-09-06T10:47:21;5.30;;;2.50;;
15130;SDS011;7666;50.920;4.628;2022-09-06T10:50:09;4.53;;;2.30;;
15130;SDS011;7666;50.920;4.628;2022-09-06T10:52:55;3.55;;;2.22;;
15130;SDS011;7666;50.920;4.628;2022-09-06T10:55:46;5.22;;;2.00;;
15130;SDS011;7666;50.920;4.628;2022-09-06T11:04:47;3.25;;;1.90;;
15130;SDS011;7666;50.920;4.628;2022-09-06T11:07:41;4.80;;;2.03;;
15130;SDS011;7666;50.920;4.628;2022-09-06T11:10:37;5.05;;;1.70;;
15130;SDS011;7666;50.920;4.628;2022-09-06T11:13:26;3.20;;;1.90;;
15130;SDS011;7666;50.920;4.628;2022-09-06T11:19:09;4.38;;;1.60;;
15130;SDS011;7666;50.920;4.628;2022-09-06T11:22:16;2.65;;;1.13;;
15130;SDS011;7666;50.920;4.628;2022-09-06T11:27:59;3.08;;;1.65;;
15130;SDS011;7666;50.920;4.628;2022-09-06T11:30:47;4.25;;;1.80;;
15130;SDS011;7666;50.920;4.628;2022-09-06T11:33:34;3.83;;;1.48;;
15130;SDS011;7666;50.920;4.628;2022-09-06T11:39:10;3.85;;;1.67;;
15130;SDS011;7666;50.920;4.628;2022-09-06T11:41:56;4.28;;;1.67;;
15130;SDS011;7666;50.920;4.628;2022-09-06T11:44:50;3.95;;;1.70;;
15130;SDS011;7666;50.920;4.628;2022-09-06T11:47:38;3.15;;;1.73;;
15130;SDS011;7666;50.920;4.628;2022-09-06T11:59:42;3.85;;;1.50;;
15130;SDS011;7666;50.920;4.628;2022-09-06T12:02:35;2.45;;;1.30;;
15130;SDS011;7666;50.920;4.628;2022-09-06T12:05:26;4.13;;;1.50;;
15130;SDS011;7666;50.920;4.628;2022-09-06T12:17:17;3.15;;;1.27;;
15130;SDS011;7666;50.920;4.628;2022-09-06T12:20:04;4.85;;;1.60;;
15130;SDS011;7666;50.920;4.628;2022-09-06T12:22:51;4.63;;;1.58;;
15130;SDS011;7666;50.920;4.628;2022-09-06T12:28:32;3.38;;;1.27;;
15130;SDS011;7666;50.920;4.628;2022-09-06T12:31:23;4.72;;;1.60;;
15130;SDS011;7666;50.920;4.628;2022-09-06T12:34:14;3.67;;;1.27;;
15130;SDS011;7666;50.920;4.628;2022-09-06T12:37:03;2.78;;;1.48;;
15130;SDS011;7666;50.920;4.628;2022-09-06T12:39:57;2.85;;;1.35;;
15130;SDS011;7666;50.920;4.628;2022-09-06T12:42:45;2.70;;;1.25;;
15130;SDS011;7666;50.920;4.628;2022-09-06T12:45:32;3.00;;;1.20;;
15130;SDS011;7666;50.920;4.628;2022-09-06T12:48:26;3.28;;;1.65;;
15130;SDS011;7666;50.920;4.628;2022-09-06T12:51:18;3.28;;;1.30;;
15130;SDS011;7666;50.920;4.628;2022-09-06T12:57:11;1.77;;;0.98;;
15130;SDS011;7666;50.920;4.628;2022-09-06T12:59:58;2.40;;;1.40;;
15130;SDS011;7666;50.920;4.628;2022-09-06T13:02:55;2.25;;;1.15;;
15130;SDS011;7666;50.920;4.628;2022-09-06T13:05:43;4.57;;;1.30;;
15130;SDS011;7666;50.920;4.628;2022-09-06T13:08:33;3.38;;;1.23;;
15130;SDS011;7666;50.920;4.628;2022-09-06T13:11:29;3.05;;;1.58;;
15130;SDS011;7666;50.920;4.628;2022-09-06T13:14:20;2.20;;;1.30;;
15130;SDS011;7666;50.920;4.628;2022-09-06T13:17:08;1.60;;;1.10;;
15130;SDS011;7666;50.920;4.628;2022-09-06T13:20:12;4.53;;;1.50;;
15130;SDS011;7666;50.920;4.628;2022-09-06T13:23:09;3.85;;;1.20;;
15130;SDS011;7666;50.920;4.628;2022-09-06T13:25:56;2.40;;;1.20;;
15130;SDS011;7666;50.920;4.628;2022-09-06T13:28:42;3.75;;;1.13;;
15130;SDS011;7666;50.920;4.628;2022-09-06T13:31:29;2.75;;;1.25;;
15130;SDS011;7666;50.920;4.628;2022-09-06T13:34:34;3.00;;;1.50;;
15130;SDS011;7666;50.920;4.628;2022-09-06T13:37:22;3.75;;;1.63;;
15130;SDS011;7666;50.920;4.628;2022-09-06T13:43:28;4.00;;;1.60;;
15130;SDS011;7666;50.920;4.628;2022-09-06T13:46:17;2.20;;;1.60;;
15130;SDS011;7666;50.920;4.628;2022-09-06T13:49:04;2.78;;;1.30;;
15130;SDS011;7666;50.920;4.628;2022-09-06T13:51:51;3.53;;;1.50;;
15130;SDS011;7666;50.920;4.628;2022-09-06T13:54:37;3.33;;;1.30;;
15130;SDS011;7666;50.920;4.628;2022-09-06T13:57:24;2.75;;;1.13;;
15130;SDS011;7666;50.920;4.628;2022-09-06T14:00:10;3.00;;;1.35;;
15130;SDS011;7666;50.920;4.628;2022-09-06T14:02:58;5.00;;;1.55;;
15130;SDS011;7666;50.920;4.628;2022-09-06T14:05:45;2.28;;;1.20;;
15130;SDS011;7666;50.920;4.628;2022-09-06T14:08:31;3.08;;;1.15;;
15130;SDS011;7666;50.920;4.628;2022-09-06T14:11:17;3.22;;;1.30;;
15130;SDS011;7666;50.920;4.628;2022-09-06T14:14:04;3.47;;;1.42;;
15130;SDS011;7666;50.920;4.628;2022-09-06T14:16:50;1.65;;;1.13;;
15130;SDS011;7666;50.920;4.628;2022-09-06T14:19:38;5.72;;;1.30;;
15130;SDS011;7666;50.920;4.628;2022-09-06T14:22:25;3.22;;;1.27;;
15130;SDS011;7666;50.920;4.628;2022-09-06T14:25:12;3.15;;;1.30;;
15130;SDS011;7666;50.920;4.628;2022-09-06T14:27:58;1.88;;;1.20;;
15130;SDS011;7666;50.920;4.628;2022-09-06T14:30:45;1.85;;;1.00;;
15130;SDS011;7666;50.920;4.628;2022-09-06T14:33:31;2.08;;;1.10;;
15130;SDS011;7666;50.920;4.628;2022-09-06T14:36:19;3.80;;;1.00;;
15130;SDS011;7666;50.920;4.628;2022-09-06T14:39:05;3.58;;;1.20;;
15130;SDS011;7666;50.920;4.628;2022-09-06T14:41:52;1.17;;;0.90;;
15130;SDS011;7666;50.920;4.628;2022-09-06T14:44:38;2.38;;;1.25;;
15130;SDS011;7666;50.920;4.628;2022-09-06T14:47:25;1.70;;;1.00;;
15130;SDS011;7666;50.920;4.628;2022-09-06T14:50:12;1.80;;;1.00;;
15130;SDS011;7666;50.920;4.628;2022-09-06T14:52:58;2.38;;;1.08;;
15130;SDS011;7666;50.920;4.628;2022-09-06T14:55:44;1.48;;;1.15;;
15130;SDS011;7666;50.920;4.628;2022-09-06T14:58:31;2.92;;;1.15;;
15130;SDS011;7666;50.920;4.628;2022-09-06T15:01:19;3.88;;;1.10;;
15130;SDS011;7666;50.920;4.628;2022-09-06T15:04:06;4.18;;;1.10;;
15130;SDS011;7666;50.920;4.628;2022-09-06T15:06:53;1.50;;;1.00;;
15130;SDS011;7666;50.920;4.628;2022-09-06T15:09:39;3.80;;;1.10;;
15130;SDS011;7666;50.920;4.628;2022-09-06T15:12:26;2.58;;;1.15;;
15130;SDS011;7666;50.920;4.628;2022-09-06T15:15:13;2.45;;;1.15;;
15130;SDS011;7666;50.920;4.628;2022-09-06T15:18:00;1.58;;;1.00;;
15130;SDS011;7666;50.920;4.628;2022-09-06T15:20:47;5.07;;;1.45;;
15130;SDS011;7666;50.920;4.628;2022-09-06T15:23:33;1.20;;;1.10;;
15130;SDS011;7666;50.920;4.628;2022-09-06T15:26:20;2.47;;;1.20;;
15130;SDS011;7666;50.920;4.628;2022-09-06T15:29:06;1.98;;;1.05;;
15130;SDS011;7666;50.920;4.628;2022-09-06T15:31:53;2.72;;;1.30;;
15130;SDS011;7666;50.920;4.628;2022-09-06T15:34:39;7.03;;;1.35;;
15130;SDS011;7666;50.920;4.628;2022-09-06T15:37:26;1.52;;;0.80;;
15130;SDS011;7666;50.920;4.628;2022-09-06T15:40:12;3.28;;;1.15;;
15130;SDS011;7666;50.920;4.628;2022-09-06T15:42:59;1.55;;;1.08;;
15130;SDS011;7666;50.920;4.628;2022-09-06T15:45:46;2.10;;;1.25;;
15130;SDS011;7666;50.920;4.628;2022-09-06T15:48:38;1.77;;;1.15;;
15130;SDS011;7666;50.920;4.628;2022-09-06T15:51:25;2.60;;;1.13;;
15130;SDS011;7666;50.920;4.628;2022-09-06T15:54:12;3.08;;;1.30;;
15130;SDS011;7666;50.920;4.628;2022-09-06T15:56:59;1.75;;;1.08;;
15130;SDS011;7666;50.920;4.628;2022-09-06T15:59:45;2.92;;;1.08;;
15130;SDS011;7666;50.920;4.628;2022-09-06T16:02:32;1.95;;;1.05;;
15130;SDS011;7666;50.920;4.628;2022-09-06T16:05:18;2.15;;;1.10;;
15130;SDS011;7666;50.920;4.628;2022-09-06T16:08:04;1.73;;;1.15;;
15130;SDS011;7666;50.920;4.628;2022-09-06T16:10:51;3.25;;;1.15;;
15130;SDS011;7666;50.920;4.628;2022-09-06T16:13:37;1.52;;;1.10;;
15130;SDS011;7666;50.920;4.628;2022-09-06T16:16:24;1.20;;;0.93;;
15130;SDS011;7666;50.920;4.628;2022-09-06T16:19:11;2.20;;;0.95;;
15130;SDS011;7666;50.920;4.628;2022-09-06T16:21:57;3.97;;;1.55;;
15130;SDS011;7666;50.920;4.628;2022-09-06T16:24:45;2.78;;;1.48;;
15130;SDS011;7666;50.920;4.628;2022-09-06T16:27:31;2.15;;;1.38;;
15130;SDS011;7666;50.920;4.628;2022-09-06T16:30:18;2.70;;;1.83;;
15130;SDS011;7666;50.920;4.628;2022-09-06T16:33:04;3.75;;;1.70;;
15130;SDS011;7666;50.920;4.628;2022-09-06T16:35:51;6.10;;;1.88;;
15130;SDS011;7666;50.920;4.628;2022-09-06T16:38:37;4.00;;;1.90;;
15130;SDS011;7666;50.920;4.628;2022-09-06T16:41:30;2.92;;;2.13;;
15130;SDS011;7666;50.920;4.628;2022-09-06T16:44:18;3.20;;;1.23;;
15130;SDS011;7666;50.920;4.628;2022-09-06T16:47:04;5.65;;;1.33;;
15130;SDS011;7666;50.920;4.628;2022-09-06T16:49:50;2.42;;;1.45;;
15130;SDS011;7666;50.920;4.628;2022-09-06T16:52:37;4.55;;;1.50;;
15130;SDS011;7666;50.920;4.628;2022-09-06T16:55:24;2.53;;;1.40;;
15130;SDS011;7666;50.920;4.628;2022-09-06T16:58:10;2.50;;;1.67;;
15130;SDS011;7666;50.920;4.628;2022-09-06T17:00:57;3.28;;;1.70;;
15130;SDS011;7666;50.920;4.628;2022-09-06T17:03:43;4.32;;;1.90;;
15130;SDS011;7666;50.920;4.628;2022-09-06T17:06:31;2.78;;;1.60;;
15130;SDS011;7666;50.920;4.628;2022-09-06T17:09:22;4.70;;;1.73;;
15130;SDS011;7666;50.920;4.628;2022-09-06T17:12:08;6.35;;;2.10;;
15130;SDS011;7666;50.920;4.628;2022-09-06T17:14:55;5.22;;;1.90;;
15130;SDS011;7666;50.920;4.628;2022-09-06T17:17:41;3.88;;;1.50;;
15130;SDS011;7666;50.920;4.628;2022-09-06T17:20:28;2.28;;;1.30;;
15130;SDS011;7666;50.920;4.628;2022-09-06T17:23:14;2.00;;;1.77;;
15130;SDS011;7666;50.920;4.628;2022-09-06T17:26:01;3.42;;;1.80;;
15130;SDS011;7666;50.920;4.628;2022-09-06T17:28:48;3.08;;;1.88;;
15130;SDS011;7666;50.920;4.628;2022-09-06T17:31:35;3.40;;;1.73;;
15130;SDS011;7666;50.920;4.628;2022-09-06T17:34:22;10.87;;;2.57;;
15130;SDS011;7666;50.920;4.628;2022-09-06T17:37:08;3.93;;;1.50;;
15130;SDS011;7666;50.920;4.628;2022-09-06T17:39:54;2.57;;;1.60;;
15130;SDS011;7666;50.920;4.628;2022-09-06T17:42:41;3.43;;;1.60;;
15130;SDS011;7666;50.920;4.628;2022-09-06T17:45:27;2.90;;;1.60;;
15130;SDS011;7666;50.920;4.628;2022-09-06T17:48:14;3.10;;;1.30;;
15130;SDS011;7666;50.920;4.628;2022-09-06T17:51:04;4.80;;;1.40;;
15130;SDS011;7666;50.920;4.628;2022-09-06T17:53:51;1.50;;;1.30;;
15130;SDS011;7666;50.920;4.628;2022-09-06T17:56:38;2.90;;;1.50;;
15130;SDS011;7666;50.920;4.628;2022-09-06T17:59:24;1.87;;;1.60;;
15130;SDS011;7666;50.920;4.628;2022-09-06T18:02:10;3.50;;;1.60;;
15130;SDS011;7666;50.920;4.628;2022-09-06T18:04:57;5.03;;;1.73;;
15130;SDS011;7666;50.920;4.628;2022-09-06T18:07:43;2.97;;;1.50;;
15130;SDS011;7666;50.920;4.628;2022-09-06T18:10:39;3.00;;;1.60;;
15130;SDS011;7666;50.920;4.628;2022-09-06T18:13:25;4.20;;;1.60;;
15130;SDS011;7666;50.920;4.628;2022-09-06T18:16:12;2.00;;;1.53;;
15130;SDS011;7666;50.920;4.628;2022-09-06T18:19:00;2.90;;;1.60;;
15130;SDS011;7666;50.920;4.628;2022-09-06T18:21:48;2.43;;;1.47;;
15130;SDS011;7666;50.920;4.628;2022-09-06T18:24:35;3.43;;;1.50;;
15130;SDS011;7666;50.920;4.628;2022-09-06T18:27:22;1.77;;;1.47;;
15130;SDS011;7666;50.920;4.628;2022-09-06T18:30:08;2.63;;;1.50;;
15130;SDS011;7666;50.920;4.628;2022-09-06T18:32:55;2.17;;;1.60;;